createdAt,value
2024-02-08T00:00:35.765Z,96960.97
2024-02-08T00:03:09.057Z,96975.03
2024-02-08T00:05:39.191Z,96970.75
2024-02-08T00:08:13.089Z,96971.75
2024-02-08T00:10:43.000Z,96967.78
2024-02-08T00:13:14.475Z,96966.38
2024-02-08T00:15:44.014Z,96956.09
2024-02-08T00:18:14.533Z,96959.75
2024-02-08T00:20:44.052Z,96962.34
2024-02-08T00:23:15.473Z,96959.25
2024-02-08T00:25:47.479Z,96965.25
2024-02-08T00:28:18.208Z,96963.16
2024-02-08T00:30:49.061Z,96963.16
2024-02-08T00:33:18.430Z,96967.09
2024-02-08T00:35:49.448Z,96963.63
2024-02-08T00:38:19.898Z,96966.97
2024-02-08T00:40:52.708Z,96970.38
2024-02-08T00:43:22.556Z,96968.00
2024-02-08T00:45:53.877Z,96969.97
2024-02-08T00:48:23.626Z,96974.56
2024-02-08T00:50:54.520Z,96974.72
2024-02-08T00:53:24.733Z,96985.63
2024-02-08T00:55:54.116Z,96986.44
2024-02-08T00:58:23.635Z,96981.94
2024-02-08T01:00:54.521Z,96987.31
2024-02-08T01:03:26.152Z,96978.91
2024-02-08T01:05:55.741Z,96981.31
2024-02-08T01:08:25.135Z,96984.56
2024-02-08T01:10:54.461Z,96986.94
2024-02-08T01:13:25.595Z,96982.00
2024-02-08T01:15:55.256Z,96972.84
2024-02-08T01:18:26.135Z,96968.06
2024-02-08T01:20:56.153Z,96972.03
2024-02-08T01:23:27.251Z,96955.34
2024-02-08T01:25:56.719Z,96949.84
2024-02-08T01:28:28.417Z,96964.25
2024-02-08T01:30:58.033Z,96962.22
2024-02-08T01:33:28.253Z,96952.06
2024-02-08T01:35:58.353Z,96961.97
2024-02-08T01:38:28.797Z,96963.00
2024-02-08T01:40:58.753Z,96957.00
2024-02-08T01:43:33.069Z,96948.69
2024-02-08T01:46:05.810Z,96950.50
2024-02-08T01:48:38.039Z,96945.28
2024-02-08T01:51:13.194Z,96943.69
2024-02-08T01:53:45.431Z,96949.72
2024-02-08T01:56:16.152Z,96941.59
2024-02-08T01:58:47.720Z,96943.97
2024-02-08T02:01:24.625Z,96930.38
2024-02-08T02:03:54.299Z,96922.22
2024-02-08T02:06:24.902Z,96921.41
2024-02-08T02:08:59.185Z,96918.81
2024-02-08T02:11:54.685Z,96926.09
2024-02-08T02:14:31.020Z,96921.09
2024-02-08T02:17:21.920Z,96926.81
2024-02-08T02:19:51.589Z,96930.69
2024-02-08T02:22:22.204Z,96924.66
2024-02-08T02:24:51.697Z,96926.47
2024-02-08T02:27:21.275Z,96916.53
2024-02-08T02:29:54.629Z,96926.25
2024-02-08T02:32:28.647Z,96931.81
2024-02-08T02:34:58.276Z,96926.31
2024-02-08T02:37:27.879Z,96926.09
2024-02-08T02:39:57.314Z,96921.59
2024-02-08T02:42:26.776Z,96927.03
2024-02-08T02:44:57.040Z,96924.19
2024-02-08T02:47:27.603Z,96928.13
2024-02-08T02:49:57.355Z,96921.88
2024-02-08T02:52:27.650Z,96917.22
2024-02-08T02:54:57.616Z,96921.66
2024-02-08T02:57:27.208Z,96926.66
2024-02-08T03:00:00.931Z,96926.41
2024-02-08T03:02:34.321Z,96923.78
2024-02-08T03:05:07.856Z,96920.06
2024-02-08T03:07:43.609Z,96929.25
2024-02-08T03:10:14.393Z,96923.69
2024-02-08T03:12:43.762Z,96922.28
2024-02-08T03:15:13.941Z,96925.69
2024-02-08T03:17:43.352Z,96923.88
2024-02-08T03:20:31.211Z,96930.34
2024-02-08T03:23:01.136Z,96925.63
2024-02-08T03:25:32.626Z,96934.72
2024-02-08T03:28:05.808Z,96932.34
2024-02-08T03:30:36.206Z,96939.16
2024-02-08T03:33:17.461Z,96932.34
2024-02-08T03:35:54.517Z,96938.28
2024-02-08T03:38:25.435Z,96929.03
2024-02-08T03:40:57.430Z,96938.59
2024-02-08T03:43:27.466Z,96928.28
2024-02-08T03:45:57.318Z,96930.50
2024-02-08T03:48:28.104Z,96935.72
2024-02-08T03:51:02.298Z,96929.06
2024-02-08T03:53:35.888Z,96931.91
2024-02-08T03:56:07.825Z,96936.03
2024-02-08T03:58:38.008Z,96941.94
2024-02-08T04:01:12.034Z,96941.16
2024-02-08T04:04:03.783Z,96935.13
2024-02-08T04:06:50.493Z,96936.31
2024-02-08T04:09:35.415Z,96942.13
2024-02-08T04:12:23.780Z,96942.84
2024-02-08T04:15:11.677Z,96942.50
2024-02-08T04:18:00.559Z,96945.81
2024-02-08T04:20:48.915Z,96943.91
2024-02-08T04:23:36.847Z,96939.16
2024-02-08T04:26:27.186Z,96933.56
2024-02-08T04:29:16.027Z,96937.41
2024-02-08T04:32:07.511Z,96944.59
2024-02-08T04:35:00.523Z,96954.00
2024-02-08T04:37:48.250Z,96955.75
2024-02-08T04:40:36.196Z,96958.78
2024-02-08T04:43:24.189Z,96962.22
2024-02-08T04:46:11.805Z,96968.22
2024-02-08T04:48:59.845Z,96965.97
2024-02-08T04:51:47.577Z,96968.13
2024-02-08T04:54:18.385Z,96973.56
2024-02-08T04:56:48.755Z,96983.28
2024-02-08T04:59:23.550Z,96974.44
2024-02-08T05:01:57.041Z,96976.38
2024-02-08T05:04:26.634Z,96974.34
2024-02-08T05:06:57.468Z,96981.69
2024-02-08T05:09:27.297Z,96977.75
2024-02-08T05:11:58.319Z,96978.19
2024-02-08T05:14:28.352Z,96977.84
2024-02-08T05:16:59.911Z,96977.41
2024-02-08T05:19:29.465Z,96985.81
2024-02-08T05:22:01.898Z,96985.22
2024-02-08T05:24:32.884Z,96985.69
2024-02-08T05:27:03.315Z,96989.88
2024-02-08T05:29:33.466Z,96980.47
2024-02-08T05:32:02.958Z,96991.03
2024-02-08T05:34:37.476Z,96994.44
2024-02-08T05:37:06.888Z,96993.16
2024-02-08T05:39:37.716Z,96996.25
2024-02-08T05:42:07.768Z,96996.69
2024-02-08T05:44:41.750Z,96993.28
2024-02-08T05:47:13.616Z,96991.13
2024-02-08T05:49:51.088Z,96997.81
2024-02-08T05:52:21.732Z,96995.78
2024-02-08T05:54:53.956Z,97002.50
2024-02-08T05:57:25.761Z,96998.84
2024-02-08T06:00:01.973Z,97011.22
2024-02-08T06:02:42.353Z,97015.63
2024-02-08T06:05:18.759Z,97017.88
2024-02-08T06:07:58.240Z,97013.38
2024-02-08T06:10:48.755Z,97015.41
2024-02-08T06:13:18.305Z,97021.06
2024-02-08T06:15:52.270Z,97020.63
2024-02-08T06:18:26.888Z,97029.59
2024-02-08T06:21:01.444Z,97027.78
2024-02-08T06:23:36.499Z,97033.78
2024-02-08T06:26:13.811Z,97033.78
2024-02-08T06:28:54.475Z,97025.63
2024-02-08T06:31:42.767Z,97031.63
2024-02-08T06:34:23.295Z,97031.84
2024-02-08T06:37:02.691Z,97029.25
2024-02-08T06:39:45.808Z,97028.69
2024-02-08T06:42:35.402Z,97027.19
2024-02-08T06:45:24.256Z,97019.63
2024-02-08T06:48:15.785Z,97029.78
2024-02-08T06:51:03.976Z,97025.16
2024-02-08T06:53:53.244Z,97035.13
2024-02-08T06:56:41.021Z,97038.31
2024-02-08T06:59:29.140Z,97038.06
2024-02-08T07:02:17.568Z,97048.28
2024-02-08T07:05:10.444Z,97045.44
2024-02-08T07:08:01.038Z,97045.66
2024-02-08T07:10:49.540Z,97048.84
2024-02-08T07:13:37.812Z,97046.25
2024-02-08T07:16:26.217Z,97050.53
2024-02-08T07:19:14.231Z,97047.84
2024-02-08T07:22:16.004Z,97049.09
2024-02-08T07:25:04.368Z,97059.66
2024-02-08T07:27:52.552Z,97050.06
2024-02-08T07:30:40.448Z,97050.38
2024-02-08T07:33:28.433Z,97049.81
2024-02-08T07:36:16.239Z,97045.72
2024-02-08T07:38:55.236Z,97043.75
2024-02-08T07:41:25.879Z,97042.72
2024-02-08T07:43:58.121Z,97034.59
2024-02-08T07:46:31.892Z,97036.56
2024-02-08T07:49:07.222Z,97038.09
2024-02-08T07:51:44.856Z,97039.47
2024-02-08T07:54:21.768Z,97040.50
2024-02-08T07:56:55.242Z,97038.09
2024-02-08T07:59:28.481Z,97042.06
2024-02-08T08:01:59.378Z,97042.88
2024-02-08T08:04:49.860Z,97034.78
2024-02-08T08:07:26.587Z,97032.63
2024-02-08T08:10:08.610Z,97031.94
2024-02-08T08:12:38.896Z,97031.75
2024-02-08T08:15:11.531Z,97030.63
2024-02-08T08:17:45.251Z,97022.41
2024-02-08T08:20:37.669Z,97026.31
2024-02-08T08:23:09.491Z,97031.03
2024-02-08T08:25:57.867Z,97027.88
2024-02-08T08:28:31.141Z,97032.84
2024-02-08T08:31:23.667Z,97039.56
2024-02-08T08:34:00.374Z,97035.53
2024-02-08T08:36:30.376Z,97034.75
2024-02-08T08:39:20.188Z,97045.88
2024-02-08T08:41:51.351Z,97038.88
2024-02-08T08:44:20.887Z,97024.69
2024-02-08T08:46:54.048Z,97030.94
2024-02-08T08:49:23.815Z,97040.94
2024-02-08T08:52:00.520Z,97040.16
2024-02-08T08:54:31.164Z,97044.13
2024-02-08T08:57:00.754Z,97045.41
2024-02-08T08:59:30.613Z,97050.25
2024-02-08T09:02:02.144Z,97051.16
2024-02-08T09:04:37.411Z,97046.91
2024-02-08T09:07:13.670Z,97051.41
2024-02-08T09:09:58.969Z,97050.09
2024-02-08T09:12:37.845Z,97052.63
2024-02-08T09:15:21.283Z,97054.22
2024-02-08T09:17:54.098Z,97058.84
2024-02-08T09:20:30.332Z,97054.31
2024-02-08T09:23:13.824Z,97060.28
2024-02-08T09:25:48.692Z,97067.94
2024-02-08T09:28:26.240Z,97066.81
2024-02-08T09:31:01.741Z,97065.09
2024-02-08T09:33:46.868Z,97062.88
2024-02-08T09:36:17.498Z,97063.53
2024-02-08T09:38:47.996Z,97051.75
2024-02-08T09:41:25.585Z,97047.13
2024-02-08T09:43:59.379Z,97050.69
2024-02-08T09:46:34.555Z,97041.59
2024-02-08T09:49:18.588Z,97029.25
2024-02-08T09:51:57.920Z,97032.13
2024-02-08T09:54:33.441Z,97035.06
2024-02-08T09:57:24.312Z,97037.47
2024-02-08T10:00:29.450Z,97035.09
2024-02-08T10:03:05.153Z,97024.06
2024-02-08T10:05:52.975Z,97025.06
2024-02-08T10:08:33.541Z,97030.03
2024-02-08T10:11:25.560Z,97034.50
2024-02-08T10:14:03.496Z,97036.34
2024-02-08T10:16:49.323Z,97023.91
2024-02-08T10:19:30.148Z,97031.75
2024-02-08T10:22:21.844Z,97028.16
2024-02-08T10:24:53.139Z,97023.88
2024-02-08T10:27:23.893Z,97026.84
2024-02-08T10:29:57.735Z,97023.75
2024-02-08T10:32:30.814Z,97023.97
2024-02-08T10:35:15.740Z,97016.13
2024-02-08T10:37:55.207Z,97015.38
2024-02-08T10:40:31.910Z,97014.25
2024-02-08T10:43:17.950Z,97007.44
2024-02-08T10:45:56.165Z,97002.72
2024-02-08T10:48:30.349Z,96998.75
2024-02-08T10:51:13.402Z,97004.78
2024-02-08T10:53:50.001Z,97005.78
2024-02-08T10:56:42.309Z,96999.84
2024-02-08T10:59:32.977Z,97012.44
2024-02-08T11:02:10.302Z,97012.41
2024-02-08T11:04:47.332Z,96997.31
2024-02-08T11:07:35.093Z,96992.75
2024-02-08T11:10:05.143Z,96981.25
2024-02-08T11:12:35.417Z,96979.16
2024-02-08T11:15:32.573Z,96984.47
2024-02-08T11:18:06.332Z,96981.81
2024-02-08T11:20:44.042Z,96975.16
2024-02-08T11:23:24.902Z,96973.28
2024-02-08T11:25:54.912Z,96970.19
2024-02-08T11:28:45.044Z,96967.88
2024-02-08T11:31:18.481Z,96969.41
2024-02-08T11:33:48.151Z,96969.72
2024-02-08T11:36:23.101Z,96967.91
2024-02-08T11:38:59.370Z,96963.34
2024-02-08T11:41:33.514Z,96963.63
2024-02-08T11:44:07.212Z,96965.56
2024-02-08T11:46:47.541Z,96968.78
2024-02-08T11:49:33.227Z,96957.75
2024-02-08T11:52:12.517Z,96962.94
2024-02-08T11:54:43.512Z,96961.31
2024-02-08T11:57:16.993Z,96956.16
2024-02-08T11:59:48.920Z,96961.19
2024-02-08T12:02:19.482Z,96963.09
2024-02-08T12:04:54.266Z,96964.94
2024-02-08T12:07:23.856Z,96965.09
2024-02-08T12:10:10.892Z,96962.63
2024-02-08T12:12:42.734Z,96974.06
2024-02-08T12:15:16.163Z,96968.25
2024-02-08T12:17:54.251Z,96959.56
2024-02-08T12:20:25.299Z,96968.38
2024-02-08T12:22:55.883Z,96974.69
2024-02-08T12:25:29.103Z,96982.28
2024-02-08T12:28:06.447Z,96980.53
2024-02-08T12:30:41.050Z,96969.78
2024-02-08T12:33:13.263Z,96975.56
2024-02-08T12:35:43.707Z,96965.91
2024-02-08T12:38:18.504Z,96947.91
2024-02-08T12:40:50.259Z,96947.00
2024-02-08T12:43:21.187Z,96942.94
2024-02-08T12:45:55.914Z,96946.19
2024-02-08T12:48:25.502Z,96937.00
2024-02-08T12:50:56.431Z,96946.19
2024-02-08T12:53:25.927Z,96952.22
2024-02-08T12:56:03.066Z,96943.03
2024-02-08T12:58:33.440Z,96946.19
2024-02-08T13:01:06.828Z,96942.75
2024-02-08T13:03:38.637Z,96944.84
2024-02-08T13:06:15.772Z,96944.28
2024-02-08T13:08:47.119Z,96936.38
2024-02-08T13:11:22.947Z,96939.72
2024-02-08T13:13:52.299Z,96944.13
2024-02-08T13:16:21.785Z,96944.63
2024-02-08T13:19:01.346Z,96941.50
2024-02-08T13:21:30.983Z,96933.56
2024-02-08T13:24:01.232Z,96938.22
2024-02-08T13:26:36.162Z,96943.69
2024-02-08T13:29:06.416Z,96945.69
2024-02-08T13:31:39.501Z,96942.22
2024-02-08T13:34:10.837Z,96939.59
2024-02-08T13:36:45.131Z,96933.91
2024-02-08T13:39:15.828Z,96938.47
2024-02-08T13:41:47.650Z,96932.22
2024-02-08T13:44:18.455Z,96923.91
2024-02-08T13:46:49.746Z,96913.00
2024-02-08T13:49:23.038Z,96916.88
2024-02-08T13:51:52.552Z,96911.53
2024-02-08T13:54:22.018Z,96919.00
2024-02-08T13:56:53.815Z,96920.13
2024-02-08T13:59:23.848Z,96929.72
2024-02-08T14:01:54.413Z,96919.94
2024-02-08T14:04:24.695Z,96916.97
2024-02-08T14:06:56.974Z,96921.41
2024-02-08T14:09:26.976Z,96916.91
2024-02-08T14:12:00.341Z,96917.09
2024-02-08T14:14:41.686Z,96918.81
2024-02-08T14:17:21.602Z,96913.94
2024-02-08T14:19:51.594Z,96919.91
2024-02-08T14:22:22.520Z,96918.03
2024-02-08T14:24:54.143Z,96914.84
2024-02-08T14:27:24.545Z,96913.81
2024-02-08T14:29:55.591Z,96905.97
2024-02-08T14:32:31.978Z,96914.38
2024-02-08T14:35:17.685Z,96910.66
2024-02-08T14:37:47.655Z,96906.16
2024-02-08T14:40:17.131Z,96911.13
2024-02-08T14:42:48.419Z,96901.72
2024-02-08T14:45:18.538Z,96909.06
2024-02-08T14:47:51.871Z,96914.84
2024-02-08T14:50:45.038Z,96909.38
2024-02-08T14:53:14.467Z,96897.09
2024-02-08T14:55:46.782Z,96910.69
2024-02-08T14:58:34.591Z,96892.09
2024-02-08T15:01:10.993Z,96901.75
2024-02-08T15:03:44.615Z,96896.53
2024-02-08T15:06:43.942Z,96887.91
2024-02-08T15:09:32.655Z,96890.19
2024-02-08T15:12:06.243Z,96880.19
2024-02-08T15:14:38.300Z,96878.84
2024-02-08T15:17:20.233Z,96876.47
2024-02-08T15:19:53.557Z,96881.47
2024-02-08T15:22:29.796Z,96874.88
2024-02-08T15:25:05.445Z,96872.78
2024-02-08T15:27:49.598Z,96874.84
2024-02-08T15:30:20.748Z,96870.88
2024-02-08T15:33:18.074Z,96868.50
2024-02-08T15:36:00.726Z,96868.50
2024-02-08T15:38:30.062Z,96869.78
2024-02-08T15:41:10.703Z,96851.72
2024-02-08T15:43:40.923Z,96851.72
2024-02-08T15:46:12.263Z,96851.72
2024-02-08T15:48:46.323Z,96856.41
2024-02-08T15:51:25.518Z,96852.19
2024-02-08T15:53:57.630Z,96858.69
2024-02-08T15:56:36.933Z,96860.56
2024-02-08T15:59:13.990Z,96857.38
2024-02-08T16:01:53.715Z,96855.22
2024-02-08T16:04:42.072Z,96849.22
2024-02-08T16:07:18.837Z,96845.25
2024-02-08T16:09:51.421Z,96856.22
2024-02-08T16:12:21.062Z,96850.66
2024-02-08T16:15:08.866Z,96856.13
2024-02-08T16:17:40.327Z,96848.22
2024-02-08T16:20:17.381Z,96854.00
2024-02-08T16:22:54.297Z,96863.44
2024-02-08T16:25:44.457Z,96862.09
2024-02-08T16:28:24.370Z,96855.50
2024-02-08T16:31:00.826Z,96868.56
2024-02-08T16:33:35.136Z,96858.69
2024-02-08T16:36:25.163Z,96872.31
2024-02-08T16:39:28.797Z,96862.78
2024-02-08T16:42:01.605Z,96864.88
2024-02-08T16:44:52.363Z,96873.97
2024-02-08T16:47:36.270Z,96876.81
2024-02-08T16:50:19.302Z,96871.59
2024-02-08T16:52:59.403Z,96880.78
2024-02-08T16:55:38.487Z,96877.72
2024-02-08T16:58:19.015Z,96873.25
2024-02-08T17:00:55.872Z,96868.56
2024-02-08T17:03:54.567Z,96872.53
2024-02-08T17:06:35.303Z,96883.31
2024-02-08T17:09:13.926Z,96879.41
2024-02-08T17:11:45.965Z,96885.19
2024-02-08T17:14:33.762Z,96887.59
2024-02-08T17:17:23.573Z,96887.09
2024-02-08T17:20:07.312Z,96886.47
2024-02-08T17:22:50.877Z,96883.06
2024-02-08T17:25:25.993Z,96883.63
2024-02-08T17:28:04.870Z,96887.03
2024-02-08T17:30:55.240Z,96885.63
2024-02-08T17:33:24.915Z,96889.19
2024-02-08T17:35:56.628Z,96877.16
2024-02-08T17:38:40.491Z,96870.81
2024-02-08T17:41:17.541Z,96877.22
2024-02-08T17:43:51.556Z,96871.44
2024-02-08T17:46:21.795Z,96869.88
2024-02-08T17:48:56.032Z,96877.47
2024-02-08T17:51:39.381Z,96872.25
2024-02-08T17:54:09.934Z,96871.22
2024-02-08T17:56:46.969Z,96860.19
2024-02-08T17:59:17.769Z,96860.19
2024-02-08T18:02:02.514Z,96862.13
2024-02-08T18:04:38.401Z,96850.13
2024-02-08T18:07:13.112Z,96854.91
2024-02-08T18:09:55.029Z,96842.28
2024-02-08T18:12:36.258Z,96848.50
2024-02-08T18:15:13.941Z,96838.50
2024-02-08T18:17:46.541Z,96832.81
2024-02-08T18:20:17.091Z,96826.63
2024-02-08T18:22:49.881Z,96820.13
2024-02-08T18:25:32.125Z,96811.72
2024-02-08T18:28:10.884Z,96812.84
2024-02-08T18:30:46.640Z,96813.63
2024-02-08T18:33:18.675Z,96810.13
2024-02-08T18:35:49.144Z,96814.09
2024-02-08T18:38:24.569Z,96810.47
2024-02-08T18:41:02.542Z,96802.06
2024-02-08T18:43:34.885Z,96803.03
2024-02-08T18:46:12.428Z,96805.03
2024-02-08T18:48:46.936Z,96801.00
2024-02-08T18:51:17.188Z,96806.38
2024-02-08T18:53:46.672Z,96795.94
2024-02-08T18:56:19.638Z,96797.78
2024-02-08T18:58:53.326Z,96798.31
2024-02-08T19:01:26.653Z,96798.06
2024-02-08T19:03:56.495Z,96784.53
2024-02-08T19:06:27.942Z,96782.50
2024-02-08T19:08:57.682Z,96777.25
2024-02-08T19:11:27.537Z,96769.81
2024-02-08T19:13:58.316Z,96767.47
2024-02-08T19:16:30.626Z,96766.97
2024-02-08T19:19:02.852Z,96770.88
2024-02-08T19:21:33.231Z,96768.53
2024-02-08T19:24:03.752Z,96772.50
2024-02-08T19:26:34.636Z,96770.38
2024-02-08T19:29:08.139Z,96770.94
2024-02-08T19:31:45.143Z,96770.13
2024-02-08T19:34:19.779Z,96764.13
2024-02-08T19:36:54.435Z,96765.69
2024-02-08T19:39:29.455Z,96766.97
2024-02-08T19:42:06.114Z,96763.56
2024-02-08T19:44:42.036Z,96751.78
2024-02-08T19:47:15.187Z,96759.13
2024-02-08T19:49:47.780Z,96758.09
2024-02-08T19:52:22.098Z,96758.34
2024-02-08T19:54:58.064Z,96758.03
2024-02-08T19:57:34.459Z,96763.72
2024-02-08T20:00:04.528Z,96760.56
2024-02-08T20:02:41.116Z,96752.44
2024-02-08T20:05:13.607Z,96756.06
2024-02-08T20:07:44.256Z,96756.63
2024-02-08T20:10:14.078Z,96747.44
2024-02-08T20:12:46.458Z,96737.22
2024-02-08T20:15:21.992Z,96739.63
2024-02-08T20:17:52.770Z,96740.88
2024-02-08T20:20:24.134Z,96726.50
2024-02-08T20:22:56.205Z,96734.63
2024-02-08T20:25:29.007Z,96732.75
2024-02-08T20:28:00.779Z,96726.97
2024-02-08T20:30:34.432Z,96722.72
2024-02-08T20:33:06.889Z,96726.81
2024-02-08T20:35:36.490Z,96724.94
2024-02-08T20:38:06.704Z,96724.38
2024-02-08T20:40:37.300Z,96729.50
2024-02-08T20:43:11.804Z,96746.47
2024-02-08T20:45:50.605Z,96745.56
2024-02-08T20:48:21.588Z,96753.00
2024-02-08T20:50:52.389Z,96747.72
2024-02-08T20:53:22.159Z,96746.69
2024-02-08T20:55:52.702Z,96752.94
2024-02-08T20:58:22.319Z,96749.31
2024-02-08T21:00:54.294Z,96753.72
2024-02-08T21:03:28.021Z,96748.50
2024-02-08T21:05:59.704Z,96746.47
2024-02-08T21:08:30.344Z,96749.84
2024-02-08T21:11:00.129Z,96747.25
2024-02-08T21:13:31.345Z,96739.97
2024-02-08T21:16:01.308Z,96751.75
2024-02-08T21:18:31.062Z,96743.13
2024-02-08T21:21:00.649Z,96744.09
2024-02-08T21:23:34.851Z,96735.94
2024-02-08T21:26:04.401Z,96742.16
2024-02-08T21:28:35.376Z,96745.50
2024-02-08T21:31:07.935Z,96745.50
2024-02-08T21:33:39.234Z,96745.50
2024-02-08T21:36:08.850Z,96744.56
2024-02-08T21:38:38.509Z,96741.91
2024-02-08T21:41:08.711Z,96737.13
2024-02-08T21:43:39.298Z,96744.97
2024-02-08T21:46:12.251Z,96742.63
2024-02-08T21:48:42.690Z,96742.91
2024-02-08T21:51:13.602Z,96734.53
2024-02-08T21:53:42.915Z,96740.31
2024-02-08T21:56:17.757Z,96732.97
2024-02-08T21:58:47.698Z,96722.03
2024-02-08T22:01:36.836Z,96731.47
2024-02-08T22:04:09.332Z,96730.91
2024-02-08T22:06:39.119Z,96728.28
2024-02-08T22:09:11.983Z,96725.91
2024-02-08T22:11:55.614Z,96715.47
2024-02-08T22:14:25.322Z,96691.94
2024-02-08T22:16:59.676Z,96698.97
2024-02-08T22:19:36.791Z,96705.44
2024-02-08T22:22:06.252Z,96715.00
2024-02-08T22:24:38.525Z,96707.56
2024-02-08T22:27:11.742Z,96717.13
2024-02-08T22:29:42.221Z,96714.25
2024-02-08T22:32:12.850Z,96737.25
2024-02-08T22:34:42.928Z,96729.81
2024-02-08T22:37:13.012Z,96727.03
2024-02-08T22:39:45.023Z,96722.34
2024-02-08T22:42:14.520Z,96721.47
2024-02-08T22:44:44.328Z,96727.91
2024-02-08T22:47:13.801Z,96721.13
2024-02-08T22:49:43.394Z,96714.78
2024-02-08T22:52:13.139Z,96708.31
2024-02-08T22:54:44.855Z,96707.88
2024-02-08T22:57:14.901Z,96711.03
2024-02-08T22:59:49.904Z,96705.81
2024-02-08T23:02:19.981Z,96707.88
2024-02-08T23:04:52.577Z,96724.28
2024-02-08T23:07:25.277Z,96722.25
2024-02-08T23:09:54.928Z,96714.09
2024-02-08T23:12:26.205Z,96718.75
2024-02-08T23:14:56.766Z,96715.34
2024-02-08T23:17:26.283Z,96717.16
2024-02-08T23:20:00.008Z,96715.34
2024-02-08T23:22:30.425Z,96711.16
2024-02-08T23:24:59.978Z,96710.94
2024-02-08T23:27:29.640Z,96715.75
2024-02-08T23:29:59.163Z,96716.09
2024-02-08T23:32:28.675Z,96721.31
2024-02-08T23:34:59.012Z,96714.50
2024-02-08T23:37:29.006Z,96723.34
2024-02-08T23:39:58.518Z,96713.72
2024-02-08T23:42:30.112Z,96710.09
2024-02-08T23:45:00.687Z,96725.50
2024-02-08T23:47:30.152Z,96734.44
2024-02-08T23:50:00.361Z,96728.44
2024-02-08T23:52:34.238Z,96726.63
2024-02-08T23:55:07.395Z,96708.22
2024-02-08T23:57:38.525Z,96697.03
